Airfield :
LOGIN :

Register | Disclaimer

   EN    FR    IT 

 










Legend :    VFR   Marginal VFR   IFR   Intensive IFR   Very Intensive IFR
Visi :
Ceiling :
>= 8 km
>= 3000ft
5 to 8 km
1000 to 3000 ft
1500m to 5 km
500 to 1000 ft
800 to 1500m
200 to 500 ft
< 800m
< 200 ft
Symbols :   Thunderstorms  Fog  Heavy snow  Heavy precipitations  Wind > 20 kt
SIGMETs :     Misc.  Thunderstorms  Icing  Turbulence  Mountain Waves  Volcanic Ashes






- Airport Elevation : 464 ft
- IATA code : EVX


LFOE - Evreux

CURRENT METAR :
  • 231030Z AUTO VRB02KT 9999 OVC008 04/03 Q0991 TEMPO 2000 SHSNRA BKN004 BKN010TCU

EXPIRED METARs :
  • 231000Z AUTO 18004KT 9999 OVC008 03/03 Q0991 TEMPO 2000 SHSNRA BKN004 BKN010TCU
  • 230930Z AUTO VRB02KT 9999 BKN005 OVC010 03/02 Q0991 TEMPO 2000 SHSNRA BKN004 BKN010TCU
  • 230900Z AUTO 11006KT 9999 OVC007 02/01 Q0991 TEMPO 2000 SHSNRA BKN004 BKN010TCU
  • 230830Z AUTO 12006KT 5000 -SNRA BR BKN005 BKN011 OVC016 01/00 Q0991 TEMPO 2000 SHRASN BKN004 BKN015TCU
  • 230800Z AUTO 15012KT 3500 +SNRA BR OVC004/// ///CB 01/00 Q0992 TEMPO 2000 SHRASN BKN004 OVC015

Expired Forecast.



MET'MAP, your aeronautical weather chart ! - Copyright ORBIFLY December 2007 - Disclaimer

ORBIFLY MET'MAP TEAM :

Programming & Development : Alexandra Zaïnal
Concept & original design : Baudouin d'Aumeries
Assistance for programming : Marc-Olivier Méhu
Technical & hardware support : Manuel Goepfert

Contact : metmap@orbifly.com




SOURCES & CREDITS :

   NOAA